Time;durP1;ratioP1;P1;durP2;ratioP2;P2;SDS_P1;SDS_P2;PMS_P1;PMS_P2;Temp;Humidity;BMP_temperature;BMP_pressure;BME280_temperature;BME280_humidity;BME280_pressure;Samples;Min_cycle;Max_cycle;Signal;HPM_P1;HPM_P2
2023/12/04 00:01:47;;;;;;;25.50;14.90;;;2.60;94.80;;;;;;4970095;28;20038;-50
2023/12/04 00:04:13;;;;;;;26.63;15.75;;;2.60;94.80;;;;;;4984549;28;20042;-50
2023/12/04 00:06:38;;;;;;;26.83;15.30;;;2.60;94.80;;;;;;4984614;28;20031;-50
2023/12/04 00:09:04;;;;;;;25.25;14.98;;;2.60;94.90;;;;;;4968301;28;20037;-50
2023/12/04 00:11:29;;;;;;;27.95;15.35;;;2.60;94.80;;;;;;4984375;28;20090;-50
2023/12/04 00:13:55;;;;;;;23.45;13.85;;;2.60;94.80;;;;;;4984557;28;20047;-50
2023/12/04 00:16:20;;;;;;;27.48;15.30;;;2.60;95.10;;;;;;4968162;29;20028;-50
2023/12/04 00:18:46;;;;;;;26.13;16.05;;;2.60;94.80;;;;;;4970047;28;20063;-50
2023/12/04 00:21:12;;;;;;;24.20;15.07;;;2.60;94.80;;;;;;4984312;28;20031;-50
2023/12/04 00:23:38;;;;;;;21.77;15.27;;;2.60;94.80;;;;;;4984731;28;20078;-50
2023/12/04 00:26:04;;;;;;;22.92;14.23;;;2.60;94.80;;;;;;4984256;28;20031;-50
2023/12/04 00:28:30;;;;;;;23.67;15.32;;;2.60;94.90;;;;;;4984044;28;20032;-50
2023/12/04 00:30:55;;;;;;;24.58;15.07;;;2.60;94.90;;;;;;4984258;28;20391;-50
2023/12/04 00:33:21;;;;;;;22.45;14.85;;;2.50;94.90;;;;;;4984148;28;20079;-50
2023/12/04 00:35:46;;;;;;;26.63;15.82;;;2.60;95.20;;;;;;4967870;29;20042;-50
2023/12/04 00:38:12;;;;;;;24.85;14.63;;;2.50;94.90;;;;;;4968931;28;20059;-50
2023/12/04 00:40:38;;;;;;;20.05;14.18;;;2.60;94.90;;;;;;4983990;28;20085;-50
2023/12/04 00:43:03;;;;;;;25.90;15.50;;;2.60;94.90;;;;;;4984100;28;20039;-50
2023/12/04 00:45:29;;;;;;;25.00;14.52;;;2.50;94.90;;;;;;4968859;28;20038;-50
2023/12/04 00:47:54;;;;;;;24.73;14.68;;;2.50;94.90;;;;;;4968722;28;20391;-50
2023/12/04 00:50:20;;;;;;;25.65;15.10;;;2.50;94.90;;;;;;4968223;29;20035;-50
2023/12/04 00:52:46;;;;;;;24.70;14.68;;;2.50;94.90;;;;;;4968869;28;20035;-50
2023/12/04 00:55:11;;;;;;;24.75;15.02;;;2.50;94.90;;;;;;4968846;28;20027;-50
2023/12/04 00:57:37;;;;;;;24.05;15.02;;;2.60;94.90;;;;;;4968758;28;20047;-50
2023/12/04 01:00:03;;;;;;;23.75;15.05;;;2.60;94.90;;;;;;4983486;28;20542;-50
2023/12/04 01:02:29;;;;;;;28.30;15.13;;;2.50;94.90;;;;;;4983656;28;20032;-50
2023/12/04 01:04:54;;;;;;;27.00;15.52;;;2.50;94.90;;;;;;4983460;28;20054;-50
2023/12/04 01:07:20;;;;;;;23.70;13.85;;;2.50;94.90;;;;;;4967324;29;20031;-50
2023/12/04 01:09:45;;;;;;;24.27;15.43;;;2.50;94.90;;;;;;4968709;28;20046;-50
2023/12/04 01:12:11;;;;;;;23.80;14.32;;;2.50;94.90;;;;;;4968408;28;20103;-50
2023/12/04 01:14:39;;;;;;;27.13;14.98;;;2.50;94.90;;;;;;4983112;28;20027;-50
2023/12/04 01:17:06;;;;;;;23.27;14.63;;;2.50;94.90;;;;;;4968323;28;20058;-50
2023/12/04 01:19:32;;;;;;;24.52;14.70;;;2.50;94.90;;;;;;4968461;28;20031;-50
2023/12/04 01:21:57;;;;;;;22.98;15.13;;;2.50;94.90;;;;;;4983219;28;20115;-50
2023/12/04 01:24:23;;;;;;;26.58;14.77;;;2.50;94.80;;;;;;4968304;28;20078;-50
2023/12/04 01:26:48;;;;;;;21.33;14.02;;;2.50;94.80;;;;;;4983227;28;20024;-50
2023/12/04 01:29:14;;;;;;;25.77;15.63;;;2.50;94.80;;;;;;4983228;28;20027;-50
2023/12/04 01:31:39;;;;;;;24.02;15.27;;;2.50;95.10;;;;;;4983014;28;20058;-50
2023/12/04 01:34:05;;;;;;;25.08;14.95;;;2.50;94.80;;;;;;4968304;28;20034;-50
2023/12/04 01:36:31;;;;;;;23.17;15.20;;;2.50;94.80;;;;;;4968303;28;20436;-50
2023/12/04 01:38:56;;;;;;;22.48;14.40;;;2.50;94.80;;;;;;4982887;28;20043;-50
2023/12/04 01:41:22;;;;;;;21.05;13.50;;;2.50;94.80;;;;;;4968071;28;20031;-50
2023/12/04 01:43:47;;;;;;;21.20;14.50;;;2.50;94.80;;;;;;4968104;28;20027;-50
2023/12/04 01:46:14;;;;;;;21.10;14.77;;;2.50;94.80;;;;;;4982872;28;20464;-50
2023/12/04 01:48:40;;;;;;;18.95;13.65;;;2.50;94.80;;;;;;4966612;28;20091;-50
2023/12/04 01:51:07;;;;;;;20.25;14.05;;;2.50;94.80;;;;;;4983016;28;20432;-50
2023/12/04 01:53:33;;;;;;;24.88;14.73;;;2.50;94.80;;;;;;4982778;28;20027;-50
2023/12/04 01:55:59;;;;;;;21.92;14.88;;;2.50;94.80;;;;;;4982755;28;20039;-49
2023/12/04 01:58:24;;;;;;;19.17;13.77;;;2.50;94.80;;;;;;4966576;28;20027;-50
2023/12/04 02:00:50;;;;;;;25.83;14.15;;;2.50;94.80;;;;;;4982958;28;20031;-51
2023/12/04 02:03:16;;;;;;;20.00;13.20;;;2.50;94.80;;;;;;4982795;28;20034;-50
2023/12/04 02:05:43;;;;;;;21.92;14.40;;;2.50;94.90;;;;;;4982626;28;20043;-50
2023/12/04 02:08:09;;;;;;;19.75;13.30;;;2.50;94.90;;;;;;4982692;28;20031;-50
2023/12/04 02:10:36;;;;;;;21.08;14.10;;;2.50;94.90;;;;;;4966664;28;20023;-49
2023/12/04 02:13:01;;;;;;;18.02;13.75;;;2.50;94.90;;;;;;4966788;28;20054;-51
2023/12/04 02:15:27;;;;;;;22.60;14.88;;;2.50;94.90;;;;;;4982727;28;20027;-50
2023/12/04 02:17:53;;;;;;;21.48;13.77;;;2.50;94.90;;;;;;4985588;28;20087;-50
2023/12/04 02:20:19;;;;;;;20.98;13.98;;;2.40;94.80;;;;;;4986460;28;20041;-50
2023/12/04 02:22:44;;;;;;;21.58;14.18;;;2.50;94.90;;;;;;4986487;28;20027;-50
2023/12/04 02:25:10;;;;;;;19.17;14.15;;;2.50;94.90;;;;;;4971462;28;20074;-50
2023/12/04 02:27:49;;;;;;;23.90;14.75;;;2.40;94.80;;;;;;4986515;28;20032;-50
2023/12/04 02:30:15;;;;;;;19.67;13.95;;;2.50;94.80;;;;;;4970305;29;20028;-50
2023/12/04 02:32:44;;;;;;;21.00;13.60;;;2.50;94.80;;;;;;4986455;28;20062;-50
2023/12/04 02:35:10;;;;;;;19.38;14.13;;;2.50;94.80;;;;;;4986316;28;20023;-50
2023/12/04 02:37:35;;;;;;;22.60;14.65;;;2.50;94.80;;;;;;4969838;28;20043;-50
2023/12/04 02:40:01;;;;;;;20.45;14.25;;;2.40;94.80;;;;;;4986198;28;20031;-50
2023/12/04 02:42:27;;;;;;;22.88;15.38;;;2.50;94.80;;;;;;4986081;28;20067;-48
2023/12/04 02:44:53;;;;;;;20.75;14.40;;;2.50;94.80;;;;;;4971257;28;20035;-50
2023/12/04 02:47:19;;;;;;;22.30;13.43;;;2.40;94.80;;;;;;4985757;28;20031;-49
2023/12/04 02:49:44;;;;;;;19.00;13.32;;;2.40;94.80;;;;;;4986138;28;20020;-50
2023/12/04 02:52:10;;;;;;;18.25;13.45;;;2.50;94.90;;;;;;4986330;28;20046;-50
2023/12/04 02:54:36;;;;;;;20.65;14.52;;;2.50;94.90;;;;;;4985835;28;20031;-50
2023/12/04 02:57:01;;;;;;;21.42;14.10;;;2.50;94.90;;;;;;4985902;28;20547;-50
2023/12/04 02:59:27;;;;;;;23.73;15.35;;;2.40;94.90;;;;;;4971014;28;20095;-49
2023/12/04 03:01:52;;;;;;;18.58;13.63;;;2.50;94.90;;;;;;4970690;28;20085;-50
2023/12/04 03:04:19;;;;;;;23.55;14.38;;;2.40;94.90;;;;;;4970797;28;20031;-50
2023/12/04 03:06:45;;;;;;;19.98;14.25;;;2.40;94.90;;;;;;4985532;28;20083;-50
2023/12/04 03:09:11;;;;;;;21.23;13.82;;;2.40;94.90;;;;;;4970585;28;20039;-50
2023/12/04 03:11:39;;;;;;;22.88;15.10;;;2.40;94.90;;;;;;4985510;28;20055;-50
2023/12/04 03:14:05;;;;;;;23.77;15.07;;;2.40;94.80;;;;;;4969241;28;20034;-50
2023/12/04 03:16:30;;;;;;;20.98;14.80;;;2.40;94.80;;;;;;4969177;28;20035;-50
2023/12/04 03:18:56;;;;;;;21.55;14.57;;;2.40;94.90;;;;;;4985115;28;20031;-50
2023/12/04 03:21:21;;;;;;;22.15;14.68;;;2.40;94.80;;;;;;4970459;28;20028;-50
2023/12/04 03:23:47;;;;;;;22.23;14.38;;;2.40;94.80;;;;;;4970521;28;20031;-50
2023/12/04 03:26:13;;;;;;;26.00;15.70;;;2.40;94.80;;;;;;4969036;29;20042;-50
2023/12/04 03:28:39;;;;;;;21.95;14.95;;;2.50;94.80;;;;;;4969020;28;20023;-50
2023/12/04 03:31:05;;;;;;;21.25;16.02;;;2.40;94.80;;;;;;4969167;28;20479;-50
2023/12/04 03:33:31;;;;;;;20.55;14.38;;;2.50;94.80;;;;;;4985058;28;20019;-49
2023/12/04 03:35:57;;;;;;;21.17;14.35;;;2.40;94.80;;;;;;4984975;28;20086;-50
2023/12/04 03:38:22;;;;;;;21.75;15.48;;;2.40;95.10;;;;;;4985082;28;20061;-51
2023/12/04 03:40:48;;;;;;;22.08;15.82;;;2.40;94.80;;;;;;4985076;28;20066;-50
2023/12/04 03:43:13;;;;;;;21.23;14.93;;;2.40;94.80;;;;;;4970097;28;20023;-51
2023/12/04 03:45:39;;;;;;;20.23;14.82;;;2.40;94.80;;;;;;4968690;28;20495;-50
2023/12/04 03:48:05;;;;;;;21.63;15.25;;;2.40;94.80;;;;;;4969975;28;20030;-50
2023/12/04 03:50:30;;;;;;;21.40;15.23;;;2.40;94.80;;;;;;4984804;28;20027;-50
2023/12/04 03:52:56;;;;;;;21.25;15.88;;;2.40;94.80;;;;;;4984748;28;20039;-50
2023/12/04 03:55:21;;;;;;;20.65;15.88;;;2.40;94.80;;;;;;4970080;28;20102;-50
2023/12/04 03:57:47;;;;;;;21.38;15.32;;;2.40;94.80;;;;;;4968496;29;20069;-50
2023/12/04 04:00:13;;;;;;;20.63;15.05;;;2.40;94.80;;;;;;4984574;28;20103;-50
2023/12/04 04:02:43;;;;;;;23.27;15.95;;;2.40;94.80;;;;;;4969764;28;20046;-50
2023/12/04 04:05:08;;;;;;;22.98;16.73;;;2.40;94.80;;;;;;4984649;28;20031;-50
2023/12/04 04:07:34;;;;;;;22.10;15.05;;;2.40;94.80;;;;;;4984612;28;20035;-50
2023/12/04 04:10:00;;;;;;;19.63;14.70;;;2.40;94.80;;;;;;4969773;28;20019;-50
2023/12/04 04:12:26;;;;;;;22.58;15.20;;;2.40;94.80;;;;;;4968241;28;20058;-50
2023/12/04 04:14:52;;;;;;;22.17;15.90;;;2.40;94.90;;;;;;4984639;28;20038;-50
2023/12/04 04:17:18;;;;;;;21.38;15.55;;;2.40;94.80;;;;;;4985007;28;20039;-50
2023/12/04 04:19:43;;;;;;;21.77;15.13;;;2.40;94.80;;;;;;4985082;28;20032;-50
2023/12/04 04:22:09;;;;;;;21.67;15.50;;;2.40;94.90;;;;;;4969845;28;20053;-50
2023/12/04 04:24:34;;;;;;;20.98;15.10;;;2.40;94.90;;;;;;4969575;28;20035;-50
2023/12/04 04:27:00;;;;;;;20.67;15.40;;;2.40;94.90;;;;;;4984369;28;20031;-49
2023/12/04 04:29:25;;;;;;;21.70;15.45;;;2.40;94.90;;;;;;4983944;28;20023;-50
2023/12/04 04:31:51;;;;;;;22.83;15.85;;;2.40;94.90;;;;;;4984134;28;20045;-50
2023/12/04 04:34:18;;;;;;;20.80;14.80;;;2.40;94.90;;;;;;4968049;29;20034;-50
2023/12/04 04:36:44;;;;;;;20.50;15.38;;;2.30;94.80;;;;;;4983750;28;20075;-50
2023/12/04 04:39:11;;;;;;;24.45;15.80;;;2.30;94.80;;;;;;4968950;28;20047;-50
2023/12/04 04:41:37;;;;;;;23.70;15.93;;;2.30;94.80;;;;;;4969209;28;20035;-50
2023/12/04 04:44:03;;;;;;;20.83;15.85;;;2.30;94.90;;;;;;4983997;28;20030;-50
2023/12/04 04:46:28;;;;;;;24.17;16.38;;;2.30;94.90;;;;;;4983913;28;20035;-50
2023/12/04 04:48:54;;;;;;;21.55;15.68;;;2.40;94.90;;;;;;4983700;28;20047;-50
2023/12/04 04:51:19;;;;;;;26.13;17.23;;;2.30;94.90;;;;;;4983802;28;20038;-50
2023/12/04 04:53:45;;;;;;;20.52;15.43;;;2.30;95.00;;;;;;4983736;28;20027;-50
2023/12/04 04:56:11;;;;;;;24.45;16.45;;;2.30;95.00;;;;;;4968946;28;20129;-50
2023/12/04 04:58:36;;;;;;;25.33;17.15;;;2.30;95.00;;;;;;4983641;28;20030;-50
2023/12/04 05:01:02;;;;;;;22.23;15.73;;;2.30;95.00;;;;;;4983694;28;20107;-50
2023/12/04 05:03:27;;;;;;;21.95;15.60;;;2.30;94.90;;;;;;4968718;28;20023;-50
2023/12/04 05:05:53;;;;;;;22.33;15.75;;;2.30;94.90;;;;;;4968567;28;20417;-59
2023/12/04 05:08:19;;;;;;;23.77;16.67;;;2.30;94.90;;;;;;4983090;28;20023;-59
2023/12/04 05:10:44;;;;;;;22.60;16.63;;;2.30;94.90;;;;;;4983387;28;20027;-59
2023/12/04 05:13:10;;;;;;;23.80;17.23;;;2.30;94.90;;;;;;4968534;28;20035;-59
2023/12/04 05:15:36;;;;;;;22.00;15.77;;;2.30;94.90;;;;;;4983257;28;20027;-60
2023/12/04 05:18:01;;;;;;;24.92;16.75;;;2.30;94.80;;;;;;4983156;28;20031;-59
2023/12/04 05:20:27;;;;;;;23.85;16.38;;;2.30;94.80;;;;;;4983294;28;20035;-59
2023/12/04 05:22:52;;;;;;;23.83;16.65;;;2.30;94.80;;;;;;4968444;28;20039;-59
2023/12/04 05:25:18;;;;;;;25.33;17.05;;;2.30;94.80;;;;;;4983103;28;20039;-60
2023/12/04 05:27:44;;;;;;;23.98;17.05;;;2.30;95.10;;;;;;4983030;28;20041;-59
2023/12/04 05:30:09;;;;;;;22.48;15.68;;;2.30;94.80;;;;;;4968301;28;20023;-60
2023/12/04 05:32:35;;;;;;;25.35;17.60;;;2.30;94.80;;;;;;4983125;28;20039;-59
2023/12/04 05:35:01;;;;;;;25.20;17.08;;;2.30;94.80;;;;;;4982971;28;20036;-59
2023/12/04 05:37:26;;;;;;;22.65;17.08;;;2.30;94.80;;;;;;4968109;28;20047;-59
2023/12/04 05:39:52;;;;;;;25.48;17.27;;;2.30;94.80;;;;;;4982984;28;20042;-59
2023/12/04 05:42:17;;;;;;;22.98;16.35;;;2.30;94.90;;;;;;4983175;28;20054;-60
2023/12/04 05:44:43;;;;;;;24.02;16.45;;;2.30;94.80;;;;;;4968286;28;20431;-59
2023/12/04 05:47:09;;;;;;;24.83;16.90;;;2.30;94.80;;;;;;4983133;28;20042;-59
2023/12/04 05:49:35;;;;;;;22.95;16.80;;;2.30;94.80;;;;;;4982803;28;20027;-59
2023/12/04 05:52:00;;;;;;;25.40;17.98;;;2.30;94.80;;;;;;4967118;28;20038;-59
2023/12/04 05:54:26;;;;;;;28.98;17.45;;;2.30;94.80;;;;;;4982669;28;20039;-59
2023/12/04 05:56:51;;;;;;;24.92;17.35;;;2.30;94.90;;;;;;4967868;28;20082;-60
2023/12/04 05:59:17;;;;;;;26.60;17.85;;;2.30;94.90;;;;;;4967891;28;20055;-59
2023/12/04 06:01:43;;;;;;;25.50;18.25;;;2.30;94.90;;;;;;4967999;28;20023;-60
2023/12/04 06:04:08;;;;;;;26.83;18.25;;;2.20;94.80;;;;;;4967787;28;20046;-59
2023/12/04 06:06:34;;;;;;;24.60;17.30;;;2.30;94.90;;;;;;4982763;28;20083;-59
2023/12/04 06:08:59;;;;;;;24.83;17.67;;;2.30;94.90;;;;;;4967636;28;20499;-59
2023/12/04 06:11:25;;;;;;;22.52;16.10;;;2.20;94.90;;;;;;4966474;28;20424;-59
2023/12/04 06:13:50;;;;;;;28.30;17.63;;;2.20;94.90;;;;;;4982519;28;20083;-59
2023/12/04 06:16:16;;;;;;;25.13;16.90;;;2.20;94.90;;;;;;4982900;28;20483;-59
2023/12/04 06:18:41;;;;;;;23.67;16.33;;;2.20;95.00;;;;;;4982309;28;20035;-59
2023/12/04 06:21:07;;;;;;;25.88;17.63;;;2.20;95.00;;;;;;4967727;28;20140;-59
2023/12/04 06:23:33;;;;;;;28.63;19.08;;;2.20;95.00;;;;;;4982615;28;20468;-59
2023/12/04 06:25:59;;;;;;;27.40;17.63;;;2.20;95.00;;;;;;4982903;28;20038;-58
2023/12/04 06:28:25;;;;;;;27.65;18.58;;;2.20;95.00;;;;;;4983423;28;20034;-59
2023/12/04 06:30:51;;;;;;;25.00;18.33;;;2.20;95.00;;;;;;4966505;29;20024;-59
2023/12/04 06:33:18;;;;;;;26.83;17.95;;;2.20;95.00;;;;;;4966350;29;20037;-59
2023/12/04 06:35:44;;;;;;;27.10;18.25;;;2.20;95.00;;;;;;4978501;28;20488;-59
2023/12/04 06:38:09;;;;;;;28.50;18.30;;;2.20;94.90;;;;;;4974947;28;20109;-59
2023/12/04 06:40:35;;;;;;;28.98;17.98;;;2.20;94.90;;;;;;4962937;28;20047;-59
2023/12/04 06:43:01;;;;;;;27.60;18.80;;;2.20;94.90;;;;;;4975290;28;20070;-59
2023/12/04 06:45:27;;;;;;;27.52;17.55;;;2.20;94.90;;;;;;4977620;28;20472;-58
2023/12/04 06:47:52;;;;;;;25.63;16.75;;;2.20;94.90;;;;;;4975159;28;20109;-59
2023/12/04 06:50:18;;;;;;;26.13;17.67;;;2.20;94.90;;;;;;4952897;29;20074;-59
2023/12/04 06:52:44;;;;;;;24.70;17.65;;;2.20;95.00;;;;;;4967271;28;20027;-60
2023/12/04 06:55:10;;;;;;;26.25;17.33;;;2.20;95.10;;;;;;4980838;28;20034;-59
2023/12/04 06:57:36;;;;;;;25.77;17.88;;;2.20;95.10;;;;;;4965107;28;20083;-58
2023/12/04 07:00:03;;;;;;;25.73;17.27;;;2.20;95.10;;;;;;4974558;28;20035;-59
2023/12/04 07:02:28;;;;;;;28.85;18.80;;;2.20;95.10;;;;;;4950482;29;20031;-59
2023/12/04 07:04:54;;;;;;;25.65;17.98;;;2.20;95.40;;;;;;4953405;29;20068;-58
2023/12/04 07:07:19;;;;;;;26.40;17.85;;;2.20;95.10;;;;;;4970902;28;20494;-59
2023/12/04 07:09:45;;;;;;;27.73;18.40;;;2.20;95.10;;;;;;4969650;29;20034;-59
2023/12/04 07:12:10;;;;;;;25.05;17.73;;;2.20;95.20;;;;;;4970760;28;20031;-59
2023/12/04 07:14:36;;;;;;;28.20;18.13;;;2.20;95.20;;;;;;4968825;28;20106;-59
2023/12/04 07:17:02;;;;;;;28.88;18.90;;;2.20;95.20;;;;;;4970585;28;20031;-59
2023/12/04 07:19:27;;;;;;;28.55;18.90;;;2.20;95.20;;;;;;4985476;28;20035;-59
2023/12/04 07:21:53;;;;;;;30.40;19.27;;;2.20;95.20;;;;;;4983848;28;20506;-59
2023/12/04 07:24:18;;;;;;;27.33;18.83;;;2.20;95.20;;;;;;4985287;28;20062;-59
2023/12/04 07:26:44;;;;;;;29.80;19.00;;;2.20;95.20;;;;;;4973677;28;20040;-59
2023/12/04 07:29:10;;;;;;;29.88;19.75;;;2.20;95.20;;;;;;4970382;28;20117;-59
2023/12/04 07:31:36;;;;;;;26.75;18.55;;;2.20;95.10;;;;;;4970233;28;20082;-59
2023/12/04 07:34:02;;;;;;;30.10;19.33;;;2.20;95.10;;;;;;4980317;28;20016;-59
2023/12/04 07:36:28;;;;;;;28.20;19.67;;;2.20;95.40;;;;;;4965527;28;20503;-59
2023/12/04 07:38:54;;;;;;;29.85;19.35;;;2.20;95.10;;;;;;4967471;28;20150;-58
2023/12/04 07:41:20;;;;;;;28.48;18.58;;;2.20;95.40;;;;;;4952007;29;20038;-59
2023/12/04 07:43:45;;;;;;;28.60;19.42;;;2.20;95.10;;;;;;4982933;28;20038;-58
2023/12/04 07:46:11;;;;;;;30.10;19.63;;;2.30;95.10;;;;;;4984666;28;20055;-59
2023/12/04 07:48:37;;;;;;;32.67;19.52;;;2.20;95.00;;;;;;4984815;28;20028;-59
2023/12/04 07:51:03;;;;;;;28.77;19.17;;;2.30;95.00;;;;;;4984893;28;20484;-59
2023/12/04 07:53:29;;;;;;;31.58;18.80;;;2.20;95.00;;;;;;4968858;28;20047;-59
2023/12/04 07:55:54;;;;;;;31.35;20.27;;;2.30;95.00;;;;;;4990956;28;20039;-58
2023/12/04 07:58:20;;;;;;;29.92;19.05;;;2.30;94.90;;;;;;4952137;28;20031;-59
2023/12/04 08:00:45;;;;;;;33.38;20.60;;;2.30;94.90;;;;;;4963720;28;20480;-59
2023/12/04 08:03:11;;;;;;;27.48;18.85;;;2.30;94.90;;;;;;4986826;28;20038;-59
2023/12/04 08:05:36;;;;;;;29.60;19.80;;;2.30;94.90;;;;;;4989985;28;20062;-58
2023/12/04 08:08:02;;;;;;;30.23;19.73;;;2.30;94.80;;;;;;4967372;28;20090;-58
2023/12/04 08:10:28;;;;;;;27.33;18.58;;;2.30;94.80;;;;;;4979048;28;20050;-59
2023/12/04 08:12:53;;;;;;;33.85;20.55;;;2.30;94.80;;;;;;4959515;28;20030;-59
2023/12/04 08:15:19;;;;;;;28.27;20.27;;;2.30;94.80;;;;;;4994717;28;20055;-59
2023/12/04 08:17:44;;;;;;;27.77;18.52;;;2.30;94.80;;;;;;4954377;28;20539;-58
2023/12/04 08:20:14;;;;;;;32.00;19.95;;;2.30;94.70;;;;;;4976007;28;20037;-59
2023/12/04 08:22:45;;;;;;;33.15;20.00;;;2.30;94.70;;;;;;4968574;28;20126;-59
2023/12/04 08:25:11;;;;;;;34.08;20.48;;;2.30;94.70;;;;;;4978940;28;20038;-59
2023/12/04 08:27:36;;;;;;;32.50;20.15;;;2.40;94.70;;;;;;4964280;28;20035;-58
2023/12/04 08:30:04;;;;;;;31.20;19.85;;;2.40;94.80;;;;;;4966423;28;20043;-60
2023/12/04 08:32:29;;;;;;;32.92;20.58;;;2.30;94.70;;;;;;4982677;28;20035;-59
2023/12/04 08:34:55;;;;;;;34.65;19.65;;;2.30;94.80;;;;;;4973681;28;20067;-59
2023/12/04 08:37:21;;;;;;;30.75;20.38;;;2.30;94.80;;;;;;4955553;29;20035;-59
2023/12/04 08:39:46;;;;;;;34.38;20.27;;;2.40;94.90;;;;;;4966132;28;20539;-59
2023/12/04 08:42:12;;;;;;;35.03;19.98;;;2.40;94.90;;;;;;4950640;29;20027;-59
2023/12/04 08:44:38;;;;;;;33.78;20.25;;;2.40;94.90;;;;;;4966781;28;20082;-58
2023/12/04 08:47:04;;;;;;;38.15;21.70;;;2.40;94.90;;;;;;4950150;29;20050;-59
2023/12/04 08:49:29;;;;;;;47.20;21.73;;;2.40;94.90;;;;;;4981719;28;20030;-59
2023/12/04 08:51:55;;;;;;;37.67;21.83;;;2.40;94.90;;;;;;4974620;28;20028;-59
2023/12/04 08:54:21;;;;;;;34.10;19.83;;;2.40;94.90;;;;;;4962572;28;20031;-59
2023/12/04 08:56:46;;;;;;;36.35;21.08;;;2.40;94.80;;;;;;4939303;29;20040;-59
2023/12/04 08:59:14;;;;;;;41.50;21.85;;;2.40;94.80;;;;;;4978435;28;20419;-58
2023/12/04 09:01:40;;;;;;;37.38;20.55;;;2.50;94.80;;;;;;4967234;29;20031;-58
2023/12/04 09:04:07;;;;;;;33.15;20.98;;;2.50;94.90;;;;;;4948588;29;20026;-58
2023/12/04 09:06:32;;;;;;;42.20;20.98;;;2.50;94.90;;;;;;4964736;28;20046;-59
2023/12/04 09:08:58;;;;;;;37.28;21.73;;;2.50;94.90;;;;;;4974911;28;20058;-58
2023/12/04 09:11:23;;;;;;;34.83;21.30;;;2.50;94.80;;;;;;4967406;29;20031;-59
2023/12/04 09:13:49;;;;;;;34.58;22.15;;;2.50;94.80;;;;;;4963852;28;20052;-59
2023/12/04 09:16:15;;;;;;;43.63;21.10;;;2.60;94.90;;;;;;4963944;29;20040;-59
2023/12/04 09:18:40;;;;;;;41.95;21.05;;;2.60;94.90;;;;;;4980401;28;20078;-59
2023/12/04 09:21:08;;;;;;;35.97;20.58;;;2.60;94.80;;;;;;4956513;29;20031;-59
2023/12/04 09:23:34;;;;;;;36.35;21.05;;;2.60;94.80;;;;;;4961896;28;20039;-58
2023/12/04 09:26:00;;;;;;;42.17;20.20;;;2.50;94.80;;;;;;4981297;28;20035;-59
2023/12/04 09:28:25;;;;;;;37.15;21.50;;;2.60;94.90;;;;;;4966220;28;20046;-59
2023/12/04 09:30:51;;;;;;;39.40;20.70;;;2.60;94.80;;;;;;4979725;28;20091;-59
2023/12/04 09:33:16;;;;;;;34.83;20.52;;;2.60;94.80;;;;;;4981049;28;20476;-58
2023/12/04 09:35:42;;;;;;;40.78;22.23;;;2.60;94.80;;;;;;4980046;28;20027;-59
2023/12/04 09:38:08;;;;;;;37.58;20.98;;;2.60;94.90;;;;;;4966514;28;20031;-59
2023/12/04 09:40:33;;;;;;;39.78;21.13;;;2.60;94.90;;;;;;4964879;29;20027;-59
2023/12/04 09:42:59;;;;;;;37.58;20.80;;;2.60;94.80;;;;;;4980938;28;20035;-59
2023/12/04 09:45:25;;;;;;;44.92;21.52;;;2.60;94.80;;;;;;4961960;28;20441;-59
2023/12/04 09:47:50;;;;;;;43.22;21.55;;;2.60;94.80;;;;;;4977438;28;20028;-59
2023/12/04 09:50:20;;;;;;;41.28;21.63;;;2.70;94.80;;;;;;4966849;28;20028;-58
2023/12/04 09:52:50;;;;;;;42.33;21.42;;;2.60;94.80;;;;;;4981818;28;20055;-59
2023/12/04 09:55:16;;;;;;;35.60;19.77;;;2.70;94.80;;;;;;4979009;28;20499;-58
2023/12/04 09:57:43;;;;;;;40.15;20.33;;;2.70;94.80;;;;;;4956780;28;20039;-58
2023/12/04 10:00:09;;;;;;;50.03;22.52;;;2.70;94.80;;;;;;4972387;28;20023;-59
2023/12/04 10:02:36;;;;;;;51.25;22.13;;;2.70;94.80;;;;;;4981539;28;20046;-60
2023/12/04 10:05:04;;;;;;;50.55;22.77;;;2.70;94.80;;;;;;4949795;29;20027;-59
2023/12/04 10:07:30;;;;;;;45.47;21.55;;;2.80;94.80;;;;;;4982335;28;20031;-59
2023/12/04 10:09:56;;;;;;;43.97;21.33;;;2.80;94.70;;;;;;4977821;28;20030;-59
2023/12/04 10:12:24;;;;;;;42.80;22.00;;;2.80;94.70;;;;;;4980245;28;20027;-59
2023/12/04 10:15:08;;;;;;;39.50;20.42;;;2.70;94.70;;;;;;4980141;28;20023;-59
2023/12/04 10:17:37;;;;;;;42.88;20.90;;;2.80;94.70;;;;;;4965017;29;20035;-59
2023/12/04 10:20:12;;;;;;;43.38;20.88;;;2.80;94.70;;;;;;4957636;29;20032;-59
2023/12/04 10:22:59;;;;;;;49.15;21.08;;;2.80;94.70;;;;;;4979056;28;20059;-60
2023/12/04 10:25:27;;;;;;;41.70;21.67;;;2.80;94.60;;;;;;4947712;29;20031;-59
2023/12/04 10:27:54;;;;;;;45.17;21.67;;;2.80;94.60;;;;;;4966672;28;20028;-59
2023/12/04 10:30:31;;;;;;;48.22;22.48;;;2.80;94.60;;;;;;4981538;28;20026;-59
2023/12/04 10:33:07;;;;;;;37.60;20.20;;;2.80;94.60;;;;;;4980298;28;20027;-59
2023/12/04 10:35:36;;;;;;;48.60;21.02;;;2.90;94.60;;;;;;4989805;28;20035;-59
2023/12/04 10:38:02;;;;;;;35.65;19.50;;;2.80;94.60;;;;;;4981261;28;20042;-59
2023/12/04 10:40:29;;;;;;;47.60;21.30;;;2.90;94.60;;;;;;4984480;28;20023;-59
2023/12/04 10:43:16;;;;;;;44.85;20.75;;;2.90;94.50;;;;;;4967761;28;20554;-59
2023/12/04 10:45:43;;;;;;;66.82;22.33;;;2.90;94.50;;;;;;4967089;28;20035;-60
2023/12/04 10:48:09;;;;;;;54.58;22.50;;;2.90;94.70;;;;;;4981713;28;20030;-59
2023/12/04 10:50:39;;;;;;;43.72;20.90;;;2.90;94.90;;;;;;4983721;28;20031;-60
2023/12/04 10:53:09;;;;;;;45.30;21.92;;;2.90;94.70;;;;;;4985785;28;20028;-60
2023/12/04 10:55:34;;;;;;;34.00;19.88;;;3.00;94.60;;;;;;4973479;28;20080;-59
2023/12/04 10:58:03;;;;;;;39.50;19.35;;;3.00;94.60;;;;;;4974344;28;20040;-59
2023/12/04 11:00:30;;;;;;;42.72;20.38;;;2.90;94.50;;;;;;4981861;28;20036;-59
2023/12/04 11:02:56;;;;;;;41.15;20.67;;;3.00;94.50;;;;;;4984687;28;20095;-59
2023/12/04 11:05:22;;;;;;;50.67;20.58;;;2.90;94.50;;;;;;4967920;28;20058;-59
2023/12/04 11:07:52;;;;;;;52.50;21.52;;;3.00;94.50;;;;;;4996990;28;20031;-59
2023/12/04 11:10:21;;;;;;;52.90;20.88;;;3.00;94.60;;;;;;4983937;28;20038;-59
2023/12/04 11:12:46;;;;;;;43.42;20.95;;;3.00;94.60;;;;;;4970668;28;20266;-59
2023/12/04 11:15:14;;;;;;;41.03;19.88;;;3.00;94.60;;;;;;4963971;28;20463;-59
2023/12/04 11:17:39;;;;;;;40.92;20.38;;;3.00;94.60;;;;;;4984869;28;20035;-59
2023/12/04 11:20:09;;;;;;;39.88;19.92;;;3.00;94.60;;;;;;4966955;29;20086;-59
2023/12/04 11:22:38;;;;;;;47.15;21.25;;;3.10;94.80;;;;;;4959308;28;20050;-59
2023/12/04 11:25:05;;;;;;;47.38;22.17;;;3.10;94.90;;;;;;4982480;28;20028;-59
2023/12/04 11:27:31;;;;;;;50.63;20.75;;;3.10;94.90;;;;;;4978428;28;20023;-58
2023/12/04 11:29:56;;;;;;;58.40;21.98;;;3.10;94.90;;;;;;4985115;28;20082;-59
2023/12/04 11:32:23;;;;;;;47.03;21.25;;;3.10;95.10;;;;;;4980984;28;20024;-59
2023/12/04 11:34:54;;;;;;;46.55;20.83;;;3.20;95.00;;;;;;4982559;28;20108;-59
2023/12/04 11:37:20;;;;;;;55.67;20.58;;;3.20;94.90;;;;;;4972235;28;20031;-59
2023/12/04 11:39:48;;;;;;;43.63;19.88;;;3.20;94.80;;;;;;4984260;28;20040;-59
2023/12/04 11:42:13;;;;;;;47.10;20.92;;;3.20;94.70;;;;;;4968133;28;20031;-59
2023/12/04 11:44:41;;;;;;;56.65;20.88;;;3.20;94.70;;;;;;4978295;28;20041;-59
2023/12/04 11:47:06;;;;;;;47.90;21.25;;;3.20;94.80;;;;;;4976530;28;20059;-59
2023/12/04 11:49:32;;;;;;;39.97;21.02;;;3.20;94.80;;;;;;4979867;28;20047;-59
2023/12/04 11:51:58;;;;;;;45.63;20.77;;;3.20;94.80;;;;;;4963279;29;20036;-59
2023/12/04 11:54:26;;;;;;;43.03;19.85;;;3.20;94.90;;;;;;4983098;28;20463;-59
2023/12/04 11:57:20;;;;;;;39.53;21.10;;;3.20;94.80;;;;;;4952370;29;20038;-59
2023/12/04 11:59:45;;;;;;;50.70;21.50;;;3.20;94.80;;;;;;4992780;28;20026;-59
2023/12/04 12:02:11;;;;;;;47.05;21.25;;;3.20;94.80;;;;;;4965761;28;20051;-59
2023/12/04 12:04:37;;;;;;;54.92;21.25;;;3.30;94.80;;;;;;4963260;29;20031;-59
2023/12/04 12:07:04;;;;;;;43.92;20.67;;;3.30;94.80;;;;;;4962945;29;20090;-59
2023/12/04 12:09:30;;;;;;;44.70;21.00;;;3.30;94.90;;;;;;4967063;28;20464;-58
2023/12/04 12:11:56;;;;;;;50.92;24.30;;;3.30;95.00;;;;;;4973798;28;20034;-59
2023/12/04 12:14:21;;;;;;;49.30;21.60;;;3.30;95.00;;;;;;4979639;28;20038;-59
2023/12/04 12:16:47;;;;;;;50.83;22.73;;;3.30;94.90;;;;;;4956492;28;20063;-59
2023/12/04 12:19:13;;;;;;;49.70;22.00;;;3.30;94.90;;;;;;4962678;28;20020;-58
2023/12/04 12:21:38;;;;;;;45.15;20.92;;;3.40;94.90;;;;;;4980360;28;20051;-59
2023/12/04 12:24:06;;;;;;;52.33;22.75;;;3.40;94.90;;;;;;4961755;28;20040;-59
2023/12/04 12:26:32;;;;;;;47.03;21.77;;;3.40;94.90;;;;;;4977846;28;20104;-58
2023/12/04 12:28:58;;;;;;;46.60;21.35;;;3.40;95.00;;;;;;4982814;28;20077;-59
2023/12/04 12:31:23;;;;;;;42.38;20.27;;;3.40;94.90;;;;;;4982324;28;20028;-59